Airfield :
LOGIN :

Register | Disclaimer

   EN    FR    IT 

 










Legend :    VFR   Marginal VFR   IFR   Intensive IFR   Very Intensive IFR
Visi :
Ceiling :
>= 8 km
>= 3000ft
5 to 8 km
1000 to 3000 ft
1500m to 5 km
500 to 1000 ft
800 to 1500m
200 to 500 ft
< 800m
< 200 ft
Symbols :   Thunderstorms  Fog  Heavy snow  Heavy precipitations  Wind > 20 kt
SIGMETs :     Misc.  Thunderstorms  Icing  Turbulence  Mountain Waves  Volcanic Ashes






- Airport Elevation : 2026 ft
- IATA code : TOJ


LETO - Madrid Torrejon

CURRENT METAR :
  • 250830Z 05002KT CAVOK 26/14 Q1012 NOSIG

EXPIRED METARs :
  • 250800Z 09003KT 020V150 CAVOK 24/14 Q1013 NOSIG
  • 250730Z 07004KT 030V120 CAVOK 23/14 Q1013 NOSIG
  • 250700Z 07005KT 030V110 CAVOK 22/14 Q1013 NOSIG
  • 250630Z 05003KT 020V110 CAVOK 21/13 Q1012 NOSIG
  • 250600Z 03004KT CAVOK 18/11 Q1012 NOSIG
  • 250530Z 02004KT 350V050 CAVOK 17/10 Q1012 NOSIG
  • 250500Z 02004KT CAVOK 17/10 Q1012 NOSIG
  • 250430Z 01005KT CAVOK 18/10 Q1012 NOSIG
  • 250400Z 01004KT 340V050 CAVOK 17/10 Q1012 NOSIG
  • 250330Z 01004KT 340V040 CAVOK 17/11 Q1012 NOSIG

TAF AMD TAF LETO
Valid from the 25 at 06:00 until the 26 at 06:00 UTC


250658Z 2506/2606 10005KT CAVOK TX38/2515Z TN22/2506Z
PROB30
TEMPO 2512/2520 VRB15G25KT SHRA FEW030TCU
TEMPO 2510/2520 21010KT



MET'MAP, your aeronautical weather chart ! - Copyright ORBIFLY December 2007 - Disclaimer

ORBIFLY MET'MAP TEAM :

Programming & Development : Alexandra Zaïnal
Original concept : Baudouin d'Aumeries
Technical & hardware support : Manuel Goepfert
Assistance : Marc-Olivier Méhu




SOURCES & CREDITS :

   NOAA